Metar Aviation Weather Data KPWM

50°F Temp
43°F Dewpoint
% Humidity
Temperature
MPH
0 KM/H
KTS
Calm
Due North

Wind Speed
Mostly Scattered
Clouds
Pressure 1007.82 (hPa) - 29.76 (in)
Visibility 10.0 (mi) - 16 (km)

Current Conditions
KPWM
Metar :KPWM 242251Z 00000KT 10SM SCT041 OVC049 10/06 A2976 RMK AO2 RAB40E48 SLP079 P0000 T01000061
Wed 24th April 18:51 pm

  Metar Aviation API Data Provided by https://www.checkwx.com/ PHP scripts by weather34.com ©2019